createdAt,value
2018-11-28T00:00:20.147Z,92374.78
2018-11-28T00:02:48.486Z,92370.91
2018-11-28T00:05:16.841Z,92379.25
2018-11-28T00:07:45.593Z,92373.52
2018-11-28T00:10:14.419Z,92378.17
2018-11-28T00:12:42.717Z,92371.91
2018-11-28T00:15:11.923Z,92382.23
2018-11-28T00:17:40.395Z,92385.67
2018-11-28T00:20:14.486Z,92398.50
2018-11-28T00:22:42.999Z,92397.28
2018-11-28T00:25:12.194Z,92395.94
2018-11-28T00:27:40.810Z,92396.11
2018-11-28T00:30:16.833Z,92400.27
2018-11-28T00:32:45.349Z,92403.49
2018-11-28T00:35:15.330Z,92394.83
2018-11-28T00:37:43.624Z,92402.87
2018-11-28T00:40:13.685Z,92401.89
2018-11-28T00:42:42.044Z,92404.39
2018-11-28T00:45:12.223Z,92406.36
2018-11-28T00:47:40.697Z,92406.66
2018-11-28T00:50:11.734Z,92408.13
2018-11-28T00:52:40.178Z,92415.69
2018-11-28T00:55:10.646Z,92410.63
2018-11-28T00:57:38.943Z,92413.28
2018-11-28T01:00:13.958Z,92414.30
2018-11-28T01:02:57.545Z,92416.41
2018-11-28T01:05:25.795Z,92413.84
2018-11-28T01:07:54.777Z,92414.50
2018-11-28T01:10:23.868Z,92416.47
2018-11-28T01:12:52.802Z,92419.95
2018-11-28T01:15:21.445Z,92417.67
2018-11-28T01:17:49.711Z,92411.14
2018-11-28T01:20:20.208Z,92417.50
2018-11-28T01:22:48.751Z,92419.88
2018-11-28T01:25:18.625Z,92415.10
2018-11-28T01:27:46.933Z,92406.55
2018-11-28T01:30:16.980Z,92411.62
2018-11-28T01:32:45.399Z,92406.73
2018-11-28T01:35:14.428Z,92411.23
2018-11-28T01:37:43.023Z,92413.17
2018-11-28T01:40:16.207Z,92409.95
2018-11-28T01:42:44.877Z,92409.86
2018-11-28T01:45:14.798Z,92412.18
2018-11-28T01:47:43.242Z,92412.83
2018-11-28T01:50:13.300Z,92416.22
2018-11-28T01:52:41.724Z,92420.73
2018-11-28T01:55:11.848Z,92417.42
2018-11-28T01:57:40.280Z,92419.91
2018-11-28T02:00:14.259Z,92415.57
2018-11-28T02:02:42.775Z,92416.77
2018-11-28T02:05:11.921Z,92417.16
2018-11-28T02:07:40.492Z,92419.55
2018-11-28T02:10:12.894Z,92423.13
2018-11-28T02:12:41.538Z,92421.84
2018-11-28T02:15:11.269Z,92417.24
2018-11-28T02:17:39.867Z,92418.35
2018-11-28T02:20:13.024Z,92421.58
2018-11-28T02:22:41.420Z,92420.92
2018-11-28T02:25:11.599Z,92432.70
2018-11-28T02:27:40.240Z,92433.25
2018-11-28T02:30:11.994Z,92436.16
2018-11-28T02:32:40.325Z,92443.45
2018-11-28T02:35:09.751Z,92447.19
2018-11-28T02:37:38.088Z,92442.98
2018-11-28T02:40:23.042Z,92447.86
2018-11-28T02:42:51.882Z,92449.23
2018-11-28T02:45:20.828Z,92449.03
2018-11-28T02:47:49.456Z,92458.23
2018-11-28T02:50:18.179Z,92458.95
2018-11-28T02:52:46.569Z,92465.02
2018-11-28T02:55:15.417Z,92472.52
2018-11-28T02:57:44.564Z,92477.75
2018-11-28T03:00:22.377Z,92476.11
2018-11-28T03:02:50.871Z,92472.69
2018-11-28T03:05:19.288Z,92490.78
2018-11-28T03:07:47.837Z,92489.38
2018-11-28T03:10:17.981Z,92496.20
2018-11-28T03:12:46.099Z,92498.94
2018-11-28T03:15:17.984Z,92505.98
2018-11-28T03:17:46.407Z,92511.41
2018-11-28T03:20:14.854Z,92523.25
2018-11-28T03:22:43.371Z,92519.44
2018-11-28T03:25:12.001Z,92526.24
2018-11-28T03:27:40.466Z,92528.73
2018-11-28T03:30:13.120Z,92537.53
2018-11-28T03:32:41.456Z,92532.14
2018-11-28T03:35:11.849Z,92539.13
2018-11-28T03:37:40.373Z,92538.10
2018-11-28T03:40:09.098Z,92544.22
2018-11-28T03:42:37.384Z,92552.26
2018-11-28T03:45:09.670Z,92553.00
2018-11-28T03:47:38.214Z,92557.78
2018-11-28T03:50:07.801Z,92566.72
2018-11-28T03:52:36.268Z,92565.09
2018-11-28T03:55:05.476Z,92566.23
2018-11-28T03:57:34.021Z,92565.17
2018-11-28T04:00:02.606Z,92569.34
2018-11-28T04:02:31.020Z,92576.30
2018-11-28T04:04:59.709Z,92581.90
2018-11-28T04:07:28.353Z,92584.87
2018-11-28T04:09:56.797Z,92589.84
2018-11-28T04:12:25.611Z,92591.97
2018-11-28T04:14:54.102Z,92594.38
2018-11-28T04:17:22.395Z,92599.52
2018-11-28T04:19:50.807Z,92598.28
2018-11-28T04:22:19.207Z,92603.71
2018-11-28T04:24:47.761Z,92606.42
2018-11-28T04:27:16.243Z,92608.41
2018-11-28T04:29:44.690Z,92613.58
2018-11-28T04:32:13.092Z,92618.32
2018-11-28T04:34:41.753Z,92619.33
2018-11-28T04:37:10.325Z,92627.98
2018-11-28T04:39:38.856Z,92632.88
2018-11-28T04:42:07.298Z,92634.39
2018-11-28T04:44:35.742Z,92639.55
2018-11-28T04:47:04.298Z,92648.16
2018-11-28T04:49:32.848Z,92650.72
2018-11-28T04:52:00.877Z,92656.58
2018-11-28T04:54:29.247Z,92660.28
2018-11-28T04:56:57.713Z,92659.34
2018-11-28T04:59:26.055Z,92662.02
2018-11-28T05:01:54.488Z,92666.91
2018-11-28T05:04:23.073Z,92671.95
2018-11-28T05:07:55.295Z,92672.77
2018-11-28T05:10:27.104Z,92677.43
2018-11-28T05:12:56.080Z,92676.09
2018-11-28T05:15:26.452Z,92680.19
2018-11-28T05:17:55.136Z,92685.11
2018-11-28T05:20:27.435Z,92687.93
2018-11-28T05:22:55.970Z,92686.13
2018-11-28T05:25:25.265Z,92689.66
2018-11-28T05:27:54.264Z,92694.78
2018-11-28T05:30:24.579Z,92702.27
2018-11-28T05:32:53.113Z,92705.13
2018-11-28T05:35:32.143Z,92707.44
2018-11-28T05:38:01.179Z,92713.17
2018-11-28T05:40:29.808Z,92714.14
2018-11-28T05:42:58.191Z,92722.42
2018-11-28T05:45:26.646Z,92724.83
2018-11-28T05:47:55.339Z,92727.34
2018-11-28T05:50:23.706Z,92732.05
2018-11-28T05:52:52.299Z,92729.55
2018-11-28T05:55:21.714Z,92732.25
2018-11-28T05:57:50.286Z,92737.48
2018-11-28T06:00:40.202Z,92744.48
2018-11-28T06:03:10.267Z,92748.95
2018-11-28T06:05:39.046Z,92750.63
2018-11-28T06:08:07.834Z,92753.75
2018-11-28T06:10:36.684Z,92756.20
2018-11-28T06:13:05.482Z,92764.50
2018-11-28T06:15:33.829Z,92766.75
2018-11-28T06:18:02.342Z,92765.84
2018-11-28T06:20:31.023Z,92776.84
2018-11-28T06:22:59.447Z,92773.56
2018-11-28T06:25:28.544Z,92784.01
2018-11-28T06:27:57.193Z,92787.80
2018-11-28T06:30:25.719Z,92787.08
2018-11-28T06:32:54.254Z,92794.64
2018-11-28T06:35:22.715Z,92797.84
2018-11-28T06:37:51.441Z,92805.44
2018-11-28T06:40:24.000Z,92812.87
2018-11-28T06:42:50.095Z,92816.95
2018-11-28T06:45:20.784Z,92817.02
2018-11-28T06:47:49.603Z,92826.20
2018-11-28T06:50:18.906Z,92833.75
2018-11-28T06:52:48.429Z,92835.24
2018-11-28T06:55:18.742Z,92845.16
2018-11-28T06:57:47.497Z,92850.83
2018-11-28T07:00:18.050Z,92853.07
2018-11-28T07:02:46.870Z,92856.91
2018-11-28T07:05:15.616Z,92867.81
2018-11-28T07:07:44.416Z,92867.13
2018-11-28T07:10:14.719Z,92870.30
2018-11-28T07:12:43.379Z,92877.81
2018-11-28T07:15:12.730Z,92876.13
2018-11-28T07:17:41.338Z,92876.03
2018-11-28T07:20:18.768Z,92882.58
2018-11-28T07:22:56.367Z,92885.55
2018-11-28T07:25:37.206Z,92892.45
2018-11-28T07:28:19.532Z,92889.06
2018-11-28T07:30:54.440Z,92897.84
2018-11-28T07:33:34.544Z,92892.28
2018-11-28T07:36:03.901Z,92900.80
2018-11-28T07:39:04.165Z,92905.30
2018-11-28T07:41:47.639Z,92908.26
2018-11-28T07:44:17.067Z,92911.23
2018-11-28T07:46:45.745Z,92922.66
2018-11-28T07:49:14.823Z,92932.61
2018-11-28T07:51:43.715Z,92933.95
2018-11-28T07:54:12.372Z,92935.73
2018-11-28T07:56:41.243Z,92939.61
2018-11-28T07:59:09.944Z,92950.80
2018-11-28T08:01:38.489Z,92948.23
2018-11-28T08:04:07.369Z,92953.58
2018-11-28T08:06:36.417Z,92954.27
2018-11-28T08:09:06.107Z,92957.27
2018-11-28T08:11:34.937Z,92960.47
2018-11-28T08:14:03.549Z,92961.70
2018-11-28T08:16:32.245Z,92969.89
2018-11-28T08:19:00.906Z,92975.83
2018-11-28T08:21:29.874Z,92975.78
2018-11-28T08:23:58.521Z,92988.81
2018-11-28T08:26:27.460Z,92985.76
2018-11-28T08:28:56.242Z,92993.38
2018-11-28T08:31:24.904Z,92987.42
2018-11-28T08:33:53.690Z,92994.19
2018-11-28T08:36:22.483Z,93002.83
2018-11-28T08:38:50.942Z,93001.61
2018-11-28T08:41:19.617Z,93011.96
2018-11-28T08:43:48.235Z,93009.67
2018-11-28T08:46:17.085Z,93020.34
2018-11-28T08:48:45.852Z,93010.98
2018-11-28T08:51:14.424Z,93019.25
2018-11-28T08:53:43.225Z,93019.52
2018-11-28T08:56:11.924Z,93020.92
2018-11-28T08:58:40.790Z,93021.70
2018-11-28T09:01:09.553Z,93028.29
2018-11-28T09:03:38.529Z,93029.70
2018-11-28T09:06:07.462Z,93031.66
2018-11-28T09:08:35.782Z,93028.64
2018-11-28T09:11:04.541Z,93032.15
2018-11-28T09:13:33.250Z,93033.27
2018-11-28T09:16:02.188Z,93034.44
2018-11-28T09:18:31.203Z,93037.67
2018-11-28T09:21:00.005Z,93038.50
2018-11-28T09:23:28.695Z,93036.50
2018-11-28T09:25:57.449Z,93040.63
2018-11-28T09:28:26.273Z,93043.25
2018-11-28T09:30:55.364Z,93044.47
2018-11-28T09:33:24.341Z,93050.06
2018-11-28T09:35:53.154Z,93047.30
2018-11-28T09:38:21.962Z,93047.30
2018-11-28T09:40:50.751Z,93055.22
2018-11-28T09:43:19.496Z,93056.17
2018-11-28T09:45:48.230Z,93055.33
2018-11-28T09:48:17.165Z,93056.71
2018-11-28T09:50:46.054Z,93065.20
2018-11-28T09:53:15.089Z,93062.23
2018-11-28T09:55:43.907Z,93062.41
2018-11-28T09:58:12.832Z,93064.52
2018-11-28T10:00:41.477Z,93069.83
2018-11-28T10:03:10.148Z,93073.26
2018-11-28T10:05:38.937Z,93068.81
2018-11-28T10:08:07.793Z,93069.23
2018-11-28T10:10:36.487Z,93071.88
2018-11-28T10:13:05.547Z,93071.52
2018-11-28T10:15:35.720Z,93077.24
2018-11-28T10:18:03.364Z,93082.30
2018-11-28T10:20:32.192Z,93081.17
2018-11-28T10:23:00.974Z,93081.05
2018-11-28T10:25:29.623Z,93087.34
2018-11-28T10:28:02.573Z,93089.61
2018-11-28T10:30:33.144Z,93088.41
2018-11-28T10:33:01.751Z,93089.36
2018-11-28T10:35:30.330Z,93092.55
2018-11-28T10:37:59.026Z,93094.19
2018-11-28T10:40:27.906Z,93091.47
2018-11-28T10:42:59.165Z,93095.92
2018-11-28T10:45:28.299Z,93091.57
2018-11-28T10:47:56.906Z,93095.10
2018-11-28T10:50:25.411Z,93095.75
2018-11-28T10:52:54.003Z,93101.25
2018-11-28T10:55:23.114Z,93100.63
2018-11-28T10:57:51.663Z,93100.67
2018-11-28T11:00:29.601Z,93099.25
2018-11-28T11:03:03.356Z,93104.22
2018-11-28T11:05:37.056Z,93113.22
2018-11-28T11:08:11.218Z,93111.10
2018-11-28T11:10:44.870Z,93110.83
2018-11-28T11:13:18.552Z,93108.99
2018-11-28T11:15:52.446Z,93110.28
2018-11-28T11:18:20.895Z,93113.58
2018-11-28T11:20:49.433Z,93120.98
2018-11-28T11:23:18.175Z,93124.44
2018-11-28T11:25:46.492Z,93126.44
2018-11-28T11:28:15.107Z,93133.27
2018-11-28T11:30:43.815Z,93132.67
2018-11-28T11:33:12.859Z,93132.27
2018-11-28T11:35:41.503Z,93140.45
2018-11-28T11:38:09.902Z,93148.33
2018-11-28T11:40:38.502Z,93151.12
2018-11-28T11:43:07.258Z,93145.85
2018-11-28T11:45:35.626Z,93152.68
2018-11-28T11:48:04.241Z,93157.69
2018-11-28T11:50:32.883Z,93162.38
2018-11-28T11:53:01.792Z,93166.80
2018-11-28T11:55:30.476Z,93163.78
2018-11-28T11:57:59.190Z,93166.20
2018-11-28T12:00:27.864Z,93171.31
2018-11-28T12:03:02.070Z,93170.25
2018-11-28T12:05:30.640Z,93167.52
2018-11-28T12:07:59.114Z,93173.42
2018-11-28T12:10:27.718Z,93178.44
2018-11-28T12:12:56.176Z,93179.11
2018-11-28T12:15:24.618Z,93177.67
2018-11-28T12:17:53.235Z,93178.70
2018-11-28T12:20:26.076Z,93185.80
2018-11-28T12:22:54.662Z,93183.45
2018-11-28T12:25:23.076Z,93190.67
2018-11-28T12:27:52.021Z,93189.05
2018-11-28T12:30:20.608Z,93194.63
2018-11-28T12:32:49.065Z,93204.05
2018-11-28T12:35:18.450Z,93201.13
2018-11-28T12:37:47.047Z,93197.44
2018-11-28T12:40:16.422Z,93208.88
2018-11-28T12:42:47.384Z,93202.41
2018-11-28T12:45:17.722Z,93213.57
2018-11-28T12:47:46.679Z,93219.31
2018-11-28T12:50:20.335Z,93217.53
2018-11-28T12:53:03.667Z,93221.75
2018-11-28T12:55:33.769Z,93221.34
2018-11-28T12:58:02.368Z,93226.00
2018-11-28T13:00:32.730Z,93231.35
2018-11-28T13:03:01.336Z,93237.20
2018-11-28T13:05:29.911Z,93240.99
2018-11-28T13:07:58.805Z,93242.32
2018-11-28T13:10:29.246Z,93249.61
2018-11-28T13:12:58.125Z,93248.94
2018-11-28T13:15:27.130Z,93254.63
2018-11-28T13:17:55.914Z,93257.63
2018-11-28T13:20:25.001Z,93262.09
2018-11-28T13:22:54.685Z,93270.39
2018-11-28T13:25:24.120Z,93272.88
2018-11-28T13:27:53.013Z,93283.22
2018-11-28T13:30:23.392Z,93286.87
2018-11-28T13:32:52.241Z,93289.73
2018-11-28T13:35:24.672Z,93288.52
2018-11-28T13:37:54.224Z,93291.64
2018-11-28T13:40:22.650Z,93302.56
2018-11-28T13:42:51.128Z,93305.59
2018-11-28T13:45:20.623Z,93307.53
2018-11-28T13:47:49.987Z,93313.78
2018-11-28T13:50:18.426Z,93319.34
2018-11-28T13:52:47.017Z,93319.82
2018-11-28T13:57:48.992Z,93319.96
2018-11-28T14:00:17.500Z,93326.63
2018-11-28T14:02:46.321Z,93339.23
2018-11-28T14:05:14.905Z,93335.36
2018-11-28T14:07:43.543Z,93343.30
2018-11-28T14:10:13.810Z,93350.80
2018-11-28T14:12:42.552Z,93351.38
2018-11-28T14:15:15.621Z,93357.44
2018-11-28T14:17:52.151Z,93362.08
2018-11-28T14:20:20.891Z,93356.67
2018-11-28T14:22:49.477Z,93366.89
2018-11-28T14:25:18.208Z,93365.61
2018-11-28T14:27:46.649Z,93378.54
2018-11-28T14:30:21.721Z,93375.37
2018-11-28T14:32:50.658Z,93376.31
2018-11-28T14:35:19.427Z,93375.88
2018-11-28T14:37:47.962Z,93385.02
2018-11-28T14:40:17.476Z,93385.64
2018-11-28T14:42:48.537Z,93388.07
2018-11-28T14:45:17.674Z,93387.36
2018-11-28T14:47:46.378Z,93398.55
2018-11-28T14:50:17.303Z,93397.08
2018-11-28T14:52:46.025Z,93399.87
2018-11-28T14:55:18.339Z,93398.13
2018-11-28T14:57:47.205Z,93414.62
2018-11-28T15:00:18.671Z,93414.59
2018-11-28T15:02:51.237Z,93422.84
2018-11-28T15:06:25.745Z,93428.91
2018-11-28T15:08:58.645Z,93442.55
2018-11-28T15:11:27.289Z,93431.61
2018-11-28T15:13:55.808Z,93445.74
2018-11-28T15:16:24.341Z,93457.76
2018-11-28T15:18:52.709Z,93453.53
2018-11-28T15:21:21.332Z,93465.08
2018-11-28T15:23:49.862Z,93472.27
2018-11-28T15:26:18.482Z,93467.07
2018-11-28T15:28:47.156Z,93479.00
2018-11-28T15:31:15.908Z,93480.28
2018-11-28T15:33:44.685Z,93478.13
2018-11-28T15:36:13.335Z,93487.14
2018-11-28T15:38:42.114Z,93490.13
2018-11-28T15:41:10.829Z,93492.33
2018-11-28T15:43:39.519Z,93500.09
2018-11-28T15:46:07.652Z,93503.95
2018-11-28T15:48:36.229Z,93504.30
2018-11-28T15:51:05.083Z,93514.19
2018-11-28T15:53:33.661Z,93511.23
2018-11-28T15:56:02.124Z,93516.79
2018-11-28T15:58:30.779Z,93514.65
2018-11-28T16:00:59.503Z,93516.16
2018-11-28T16:03:28.531Z,93528.90
2018-11-28T16:05:57.074Z,93528.92
2018-11-28T16:08:25.654Z,93535.36
2018-11-28T16:10:54.352Z,93534.51
2018-11-28T16:13:22.762Z,93541.41
2018-11-28T16:15:52.339Z,93543.06
2018-11-28T16:18:20.793Z,93556.48
2018-11-28T16:20:49.223Z,93554.61
2018-11-28T16:23:17.915Z,93557.06
2018-11-28T16:25:46.671Z,93557.99
2018-11-28T16:28:15.573Z,93567.72
2018-11-28T16:30:44.102Z,93569.11
2018-11-28T16:33:12.695Z,93570.80
2018-11-28T16:35:41.300Z,93572.93
2018-11-28T16:38:09.734Z,93578.04
2018-11-28T16:40:38.316Z,93582.42
2018-11-28T16:43:06.947Z,93587.11
2018-11-28T16:45:35.446Z,93599.31
2018-11-28T16:48:03.989Z,93593.88
2018-11-28T16:50:32.670Z,93598.51
2018-11-28T16:53:01.412Z,93595.57
2018-11-28T16:55:29.837Z,93603.72
2018-11-28T16:57:58.460Z,93612.65
2018-11-28T17:00:28.103Z,93612.63
2018-11-28T17:02:56.868Z,93619.88
2018-11-28T17:05:25.372Z,93618.60
2018-11-28T17:07:54.238Z,93630.98
2018-11-28T17:10:24.347Z,93632.62
2018-11-28T17:12:53.032Z,93638.27
2018-11-28T17:15:21.788Z,93633.55
2018-11-28T17:17:50.598Z,93639.53
2018-11-28T17:20:20.775Z,93649.26
2018-11-28T17:22:50.107Z,93641.22
2018-11-28T17:25:23.738Z,93653.98
2018-11-28T17:27:52.182Z,93653.56
2018-11-28T17:30:22.965Z,93663.86
2018-11-28T17:32:51.623Z,93668.84
2018-11-28T17:35:20.256Z,93670.16
2018-11-28T17:37:48.922Z,93675.63
2018-11-28T17:40:19.277Z,93677.83
2018-11-28T17:42:49.440Z,93671.44
2018-11-28T17:45:18.179Z,93668.09
2018-11-28T17:47:46.841Z,93684.27
2018-11-28T17:50:16.927Z,93682.89
2018-11-28T17:52:52.379Z,93683.77
2018-11-28T17:55:20.970Z,93690.48
2018-11-28T17:57:49.433Z,93692.19
2018-11-28T18:00:19.265Z,93687.11
2018-11-28T18:02:47.827Z,93690.95
2018-11-28T18:05:16.555Z,93697.01
2018-11-28T18:07:45.415Z,93691.02
2018-11-28T18:10:15.049Z,93699.98
2018-11-28T18:12:54.386Z,93708.89
2018-11-28T18:15:23.389Z,93703.81
2018-11-28T18:17:53.109Z,93720.43
2018-11-28T18:20:21.620Z,93723.75
2018-11-28T18:22:50.249Z,93725.44
2018-11-28T18:25:19.046Z,93731.44
2018-11-28T18:27:48.070Z,93736.91
2018-11-28T18:30:19.439Z,93738.23
2018-11-28T18:32:48.481Z,93743.71
2018-11-28T18:35:17.091Z,93742.00
2018-11-28T18:37:45.873Z,93744.17
2018-11-28T18:40:14.642Z,93750.52
2018-11-28T18:42:43.328Z,93750.98
2018-11-28T18:45:28.944Z,93745.52
2018-11-28T18:47:57.700Z,93751.87
2018-11-28T18:50:26.371Z,93755.30
2018-11-28T18:52:55.277Z,93751.07
2018-11-28T18:55:23.962Z,93764.61
2018-11-28T18:57:54.596Z,93765.86
2018-11-28T19:00:24.337Z,93769.70
2018-11-28T19:02:53.685Z,93774.84
2018-11-28T19:05:22.995Z,93782.54
2018-11-28T19:07:51.627Z,93788.91
2018-11-28T19:10:26.257Z,93786.81
2018-11-28T19:12:52.471Z,93798.63
2018-11-28T19:15:22.928Z,93796.10
2018-11-28T19:17:51.625Z,93799.02
2018-11-28T19:20:21.052Z,93804.49
2018-11-28T19:22:50.636Z,93806.27
2018-11-28T19:25:20.230Z,93812.61
2018-11-28T19:27:49.066Z,93825.01
2018-11-28T19:30:23.303Z,93824.12
2018-11-28T19:32:51.987Z,93828.79
2018-11-28T19:35:20.594Z,93829.22
2018-11-28T19:37:49.221Z,93841.12
2018-11-28T19:40:26.002Z,93841.55
2018-11-28T19:42:54.893Z,93846.59
2018-11-28T19:45:23.814Z,93852.50
2018-11-28T19:47:52.645Z,93852.94
2018-11-28T19:50:25.680Z,93851.66
2018-11-28T19:52:54.661Z,93859.79
2018-11-28T19:55:23.429Z,93862.72
2018-11-28T19:57:52.199Z,93862.23
2018-11-28T20:00:20.838Z,93869.48
2018-11-28T20:02:49.775Z,93880.19
2018-11-28T20:05:18.492Z,93877.59
2018-11-28T20:07:48.316Z,93883.52
2018-11-28T20:10:18.479Z,93886.09
2018-11-28T20:12:47.529Z,93884.78
2018-11-28T20:15:17.383Z,93896.67
2018-11-28T20:17:46.085Z,93899.70
2018-11-28T20:20:15.735Z,93902.23
2018-11-28T20:22:44.437Z,93908.16
2018-11-28T20:25:15.144Z,93902.24
2018-11-28T20:27:44.916Z,93909.83
2018-11-28T20:30:36.422Z,93906.41
2018-11-28T20:33:05.391Z,93908.16
2018-11-28T20:35:34.184Z,93914.47
2018-11-28T20:38:02.843Z,93916.19
2018-11-28T20:40:31.679Z,93921.31
2018-11-28T20:43:00.684Z,93918.33
2018-11-28T20:45:29.600Z,93917.89
2018-11-28T20:47:58.433Z,93920.44
2018-11-28T20:50:29.616Z,93920.91
2018-11-28T20:53:00.956Z,93917.94
2018-11-28T20:55:30.022Z,93918.84
2018-11-28T20:57:58.826Z,93920.08
2018-11-28T21:00:28.118Z,93930.64
2018-11-28T21:02:56.918Z,93925.52
2018-11-28T21:05:25.779Z,93937.00
2018-11-28T21:07:54.882Z,93938.67
2018-11-28T21:10:28.911Z,93936.60
2018-11-28T21:12:58.081Z,93933.63
2018-11-28T21:15:27.388Z,93936.13
2018-11-28T21:17:56.299Z,93946.77
2018-11-28T21:20:25.322Z,93950.98
2018-11-28T21:22:55.907Z,93945.06
2018-11-28T21:25:24.667Z,93945.50
2018-11-28T21:27:53.253Z,93950.15
2018-11-28T21:30:21.979Z,93949.34
2018-11-28T21:32:51.428Z,93954.43
2018-11-28T21:35:22.032Z,93956.97
2018-11-28T21:37:50.529Z,93958.22
2018-11-28T21:40:19.105Z,93954.43
2018-11-28T21:42:47.834Z,93963.77
2018-11-28T21:45:17.313Z,93959.54
2018-11-28T21:47:45.842Z,93954.89
2018-11-28T21:50:14.918Z,93965.52
2018-11-28T21:52:43.407Z,93967.19
2018-11-28T21:55:28.170Z,93973.14
2018-11-28T21:57:56.611Z,93976.98
2018-11-28T22:00:26.830Z,93980.78
2018-11-28T22:02:55.262Z,93978.67
2018-11-28T22:05:24.084Z,93979.97
2018-11-28T22:07:52.749Z,93993.09
2018-11-28T22:10:22.060Z,93986.32
2018-11-28T22:12:50.676Z,93988.45
2018-11-28T22:15:19.385Z,93988.02
2018-11-28T22:17:51.219Z,93996.92
2018-11-28T22:20:19.518Z,94002.41
2018-11-28T22:22:48.223Z,93999.87
2018-11-28T22:25:17.695Z,94006.64
2018-11-28T22:27:46.306Z,94001.56
2018-11-28T22:30:23.289Z,94003.69
2018-11-28T22:32:51.517Z,94002.84
2018-11-28T22:35:19.959Z,94006.64
2018-11-28T22:37:48.482Z,94010.05
2018-11-28T22:40:21.016Z,94009.60
2018-11-28T22:42:49.586Z,94008.35
2018-11-28T22:45:20.803Z,94016.80
2018-11-28T22:47:49.478Z,94016.39
2018-11-28T22:50:18.068Z,94022.73
2018-11-28T22:52:46.694Z,94020.20
2018-11-28T22:55:16.009Z,94021.03
2018-11-28T22:57:44.510Z,94026.12
2018-11-28T23:00:27.599Z,94027.39
2018-11-28T23:02:58.199Z,94023.14
2018-11-28T23:05:28.790Z,94030.75
2018-11-28T23:07:58.217Z,94026.97
2018-11-28T23:10:26.947Z,94025.28
2018-11-28T23:12:55.397Z,94026.13
2018-11-28T23:15:23.901Z,94028.66
2018-11-28T23:17:55.019Z,94029.50
2018-11-28T23:20:20.855Z,94021.46
2018-11-28T23:22:49.538Z,94039.20
2018-11-28T23:25:18.039Z,94038.82
2018-11-28T23:27:46.652Z,94035.02
2018-11-28T23:30:16.826Z,94043.88
2018-11-28T23:32:45.793Z,94040.92
2018-11-28T23:35:14.494Z,94043.05
2018-11-28T23:37:43.921Z,94055.70
2018-11-28T23:40:15.102Z,94043.88
2018-11-28T23:42:43.917Z,94048.12
2018-11-28T23:45:13.122Z,94050.21
2018-11-28T23:47:41.912Z,94048.11
2018-11-28T23:50:11.356Z,94053.17
2018-11-28T23:52:40.100Z,94049.36
2018-11-28T23:55:14.350Z,94052.75
2018-11-28T23:57:42.890Z,94073.05
